Time;durP1;ratioP1;P1;durP2;ratioP2;P2;SDS_P1;SDS_P2;PMS_P1;PMS_P2;Temp;Humidity;BMP_temperature;BMP_pressure;BME280_temperature;BME280_humidity;BME280_pressure;Samples;Min_cycle;Max_cycle;Signal;HPM_P1;HPM_P2
2022/05/18 00:00:05;;;;;;;8.07;5.25;;;18.10;99.90;;;;;;5051908;28;20108;-78
2022/05/18 00:02:31;;;;;;;8.93;5.50;;;18.10;99.90;;;;;;5048037;28;20110;-78
2022/05/18 00:04:57;;;;;;;9.98;5.68;;;18.10;99.90;;;;;;5068865;28;20467;-78
2022/05/18 00:07:25;;;;;;;10.15;5.63;;;18.10;99.90;;;;;;5045591;28;20079;-78
2022/05/18 00:09:51;;;;;;;9.10;5.60;;;18.10;99.90;;;;;;5031510;28;20080;-79
2022/05/18 00:12:17;;;;;;;7.68;5.20;;;18.00;99.90;;;;;;5061188;28;20044;-79
2022/05/18 00:14:43;;;;;;;10.90;5.40;;;18.00;99.90;;;;;;5042323;28;20040;-77
2022/05/18 00:17:09;;;;;;;5.82;5.00;;;17.90;99.90;;;;;;5033834;28;20037;-79
2022/05/18 00:19:36;;;;;;;9.48;5.53;;;17.90;99.90;;;;;;5054479;28;20052;-77
2022/05/18 00:22:03;;;;;;;6.47;5.60;;;17.90;99.90;;;;;;5032222;28;20128;-79
2022/05/18 00:24:28;;;;;;;6.85;5.40;;;17.80;99.90;;;;;;5069379;28;20152;-79
2022/05/18 00:26:54;;;;;;;8.02;5.53;;;17.70;99.90;;;;;;5042460;28;20595;-79
2022/05/18 00:29:20;;;;;;;6.53;5.22;;;17.70;99.90;;;;;;5041015;28;20048;-78
2022/05/18 00:31:46;;;;;;;10.85;4.97;;;17.70;99.90;;;;;;5055423;28;20049;-78
2022/05/18 00:34:13;;;;;;;8.90;5.85;;;17.60;99.90;;;;;;5041734;28;20056;-78
2022/05/18 00:36:39;;;;;;;8.23;6.32;;;17.60;99.90;;;;;;5025686;28;20041;-78
2022/05/18 00:39:05;;;;;;;10.55;6.85;;;17.50;99.90;;;;;;5027463;28;20059;-78
2022/05/18 00:41:32;;;;;;;9.02;5.43;;;17.50;99.90;;;;;;5035292;28;20051;-78
2022/05/18 00:43:58;;;;;;;10.23;6.35;;;17.40;99.90;;;;;;5048972;28;20041;-78
2022/05/18 00:46:24;;;;;;;8.88;6.38;;;17.40;99.90;;;;;;5059794;28;20048;-77
2022/05/18 00:48:52;;;;;;;8.73;6.70;;;17.40;99.90;;;;;;5055554;28;20083;-78
2022/05/18 00:51:49;;;;;;;10.70;5.72;;;17.30;99.90;;;;;;5057885;28;20096;-80
2022/05/18 00:54:24;;;;;;;12.98;6.53;;;17.30;99.90;;;;;;5045362;28;20079;-79
2022/05/18 00:57:01;;;;;;;9.18;6.78;;;17.30;99.90;;;;;;5042018;28;20126;-78
2022/05/18 00:59:31;;;;;;;12.30;6.40;;;17.30;99.90;;;;;;5050174;28;20133;-79
2022/05/18 01:02:01;;;;;;;11.23;7.15;;;17.20;99.90;;;;;;5070055;28;20048;-78
2022/05/18 01:04:27;;;;;;;11.07;6.85;;;17.30;99.90;;;;;;5069188;28;20487;-78
2022/05/18 01:07:02;;;;;;;9.85;6.20;;;17.20;99.90;;;;;;5056870;28;20083;-78
2022/05/18 01:09:39;;;;;;;8.43;6.20;;;17.10;99.90;;;;;;5056087;28;20087;-78
2022/05/18 01:12:07;;;;;;;8.88;6.43;;;17.20;99.90;;;;;;5090021;28;20048;-78
2022/05/18 01:14:43;;;;;;;11.30;6.50;;;17.10;99.90;;;;;;5042005;28;20059;-78
2022/05/18 01:17:11;;;;;;;7.85;6.32;;;17.10;99.90;;;;;;5040086;28;20079;-78
2022/05/18 01:19:49;;;;;;;9.82;6.63;;;17.10;99.90;;;;;;5048117;28;20056;-79
2022/05/18 01:22:59;;;;;;;8.43;6.43;;;17.10;99.90;;;;;;5056891;28;20040;-78
2022/05/18 01:25:54;;;;;;;9.65;6.25;;;17.10;99.90;;;;;;5056297;28;20298;-78
2022/05/18 01:28:23;;;;;;;10.15;6.50;;;17.00;99.90;;;;;;5051014;28;20586;-79
2022/05/18 01:30:48;;;;;;;11.65;6.57;;;17.00;99.90;;;;;;5049651;28;20104;-78
2022/05/18 01:33:18;;;;;;;8.00;6.63;;;16.90;99.90;;;;;;5057225;28;20060;-78
2022/05/18 01:35:46;;;;;;;9.82;6.88;;;17.00;99.90;;;;;;5046458;28;20072;-78
2022/05/18 01:38:13;;;;;;;10.07;6.57;;;16.90;99.90;;;;;;5067627;28;20132;-78
2022/05/18 01:40:43;;;;;;;8.52;6.28;;;16.90;99.90;;;;;;5053254;28;20937;-76
2022/05/18 01:43:10;;;;;;;9.45;6.72;;;16.80;99.90;;;;;;5047281;28;20101;-78
2022/05/18 01:45:36;;;;;;;9.77;6.70;;;16.80;99.90;;;;;;5058306;28;20068;-79
2022/05/18 01:48:14;;;;;;;9.48;6.63;;;16.80;99.90;;;;;;5053514;28;20052;-78
2022/05/18 01:50:41;;;;;;;11.13;6.88;;;16.70;99.90;;;;;;5050456;28;20043;-78
2022/05/18 01:53:07;;;;;;;11.65;7.68;;;16.70;99.90;;;;;;5037973;28;20548;-78
2022/05/18 01:55:33;;;;;;;10.70;7.40;;;16.70;99.90;;;;;;5042734;28;20052;-78
2022/05/18 01:58:00;;;;;;;10.65;6.85;;;16.60;99.90;;;;;;5083017;28;20491;-77
2022/05/18 02:00:27;;;;;;;12.38;7.15;;;16.60;99.90;;;;;;5074985;28;20052;-78
2022/05/18 02:02:53;;;;;;;10.57;6.68;;;16.60;99.90;;;;;;5048708;28;20041;-78
2022/05/18 02:05:18;;;;;;;10.25;7.05;;;16.60;99.90;;;;;;5087548;28;20120;-77
2022/05/18 02:07:44;;;;;;;8.38;6.47;;;16.60;99.90;;;;;;5041508;28;20044;-78
2022/05/18 02:10:11;;;;;;;10.77;6.90;;;16.60;99.90;;;;;;5039258;28;20053;-78
2022/05/18 02:12:37;;;;;;;8.75;7.18;;;16.60;99.90;;;;;;5075547;28;20499;-78
2022/05/18 02:15:04;;;;;;;10.15;7.97;;;16.60;99.90;;;;;;5033009;28;20059;-78
2022/05/18 02:17:30;;;;;;;8.93;7.07;;;16.50;99.90;;;;;;5049285;28;20053;-78
2022/05/18 02:19:57;;;;;;;9.10;6.75;;;16.50;99.90;;;;;;5023209;28;20576;-78
2022/05/18 02:22:24;;;;;;;11.40;7.13;;;16.50;99.90;;;;;;5036386;28;20056;-78
2022/05/18 02:24:49;;;;;;;10.52;7.72;;;16.40;99.90;;;;;;5058239;28;20040;-79
2022/05/18 02:27:16;;;;;;;12.00;7.32;;;16.30;99.90;;;;;;5057561;28;20110;-79
2022/05/18 02:29:42;;;;;;;8.60;6.95;;;16.30;99.90;;;;;;5037486;28;20040;-78
2022/05/18 02:32:09;;;;;;;8.02;7.00;;;16.20;99.90;;;;;;5038365;28;20187;-79
2022/05/18 02:34:35;;;;;;;9.93;6.72;;;16.10;99.90;;;;;;5054957;28;20154;-79
2022/05/18 02:37:01;;;;;;;11.73;6.95;;;16.00;99.90;;;;;;5046833;28;20049;-78
2022/05/18 02:39:27;;;;;;;10.15;6.85;;;15.90;99.90;;;;;;5054147;28;20537;-78
2022/05/18 02:41:52;;;;;;;9.10;6.78;;;15.80;99.90;;;;;;5044366;28;20083;-77
2022/05/18 02:44:19;;;;;;;8.75;7.03;;;15.70;99.90;;;;;;5028473;28;20047;-77
2022/05/18 02:46:44;;;;;;;12.23;7.03;;;15.60;99.90;;;;;;5054823;28;20048;-78
2022/05/18 02:49:11;;;;;;;10.95;7.30;;;15.60;99.90;;;;;;5047135;28;20059;-78
2022/05/18 02:51:41;;;;;;;11.80;7.35;;;15.50;99.90;;;;;;5076030;28;20056;-78
2022/05/18 02:56:05;;;;;;;10.40;7.47;;;15.50;99.90;;;;;;5084658;28;20461;-77
2022/05/18 02:56:54;;;;;;;12.60;7.70;;;15.50;99.90;;;;;;5047297;28;20056;-78
2022/05/18 02:59:21;;;;;;;9.05;7.22;;;15.40;99.90;;;;;;5075185;28;20048;-78
2022/05/18 03:01:47;;;;;;;10.07;7.78;;;15.40;99.90;;;;;;5073243;28;20040;-78
2022/05/18 03:04:14;;;;;;;9.32;7.70;;;15.30;99.90;;;;;;5056060;28;20040;-77
2022/05/18 03:06:40;;;;;;;9.77;8.05;;;15.30;99.90;;;;;;5068162;28;20041;-78
2022/05/18 03:09:07;;;;;;;12.50;7.95;;;15.30;99.90;;;;;;5042016;28;20040;-78
2022/05/18 03:11:33;;;;;;;12.05;8.23;;;15.40;99.90;;;;;;5074386;28;20048;-78
2022/05/18 03:13:58;;;;;;;12.88;7.93;;;15.40;99.90;;;;;;5052094;28;20143;-79
2022/05/18 03:16:25;;;;;;;11.48;7.82;;;15.40;99.90;;;;;;5029029;28;20045;-78
2022/05/18 03:18:55;;;;;;;14.07;7.90;;;15.40;99.90;;;;;;5068450;28;20043;-78
2022/05/18 03:24:05;;;;;;;11.00;8.68;;;15.50;99.90;;;;;;5066134;28;20052;-78
2022/05/18 03:26:31;;;;;;;11.23;8.45;;;15.40;99.90;;;;;;5045037;28;20057;-78
2022/05/18 03:28:57;;;;;;;11.13;7.68;;;15.40;99.90;;;;;;5054589;28;20033;-77
2022/05/18 03:31:24;;;;;;;13.48;7.82;;;15.50;99.90;;;;;;5046783;28;20059;-77
2022/05/18 03:33:51;;;;;;;13.02;8.52;;;15.50;99.90;;;;;;5034656;28;20044;-78
2022/05/18 03:36:18;;;;;;;9.90;7.78;;;15.50;99.90;;;;;;5073592;28;20071;-78
2022/05/18 03:38:46;;;;;;;11.13;8.75;;;15.50;99.90;;;;;;5025006;28;20063;-78
2022/05/18 03:41:12;;;;;;;10.55;7.50;;;15.50;99.90;;;;;;5069961;28;20112;-78
2022/05/18 03:43:38;;;;;;;11.27;8.13;;;15.40;99.90;;;;;;5037987;28;20064;-77
2022/05/18 03:46:05;;;;;;;10.10;8.20;;;15.40;99.90;;;;;;5050121;28;20191;-77
2022/05/18 03:48:32;;;;;;;11.30;8.13;;;15.40;99.90;;;;;;5033574;28;20053;-77
2022/05/18 03:50:59;;;;;;;11.18;8.55;;;15.40;99.90;;;;;;5058708;28;20050;-78
2022/05/18 03:53:26;;;;;;;16.25;8.98;;;15.40;99.90;;;;;;5059946;28;20040;-77
2022/05/18 03:55:52;;;;;;;10.43;8.93;;;15.40;99.90;;;;;;5077910;28;20079;-78
2022/05/18 03:58:18;;;;;;;11.18;8.55;;;15.50;99.90;;;;;;5055472;28;20049;-78
2022/05/18 04:00:47;;;;;;;10.73;8.82;;;15.50;99.90;;;;;;5060441;28;20119;-77
2022/05/18 04:03:14;;;;;;;14.10;8.95;;;15.40;99.90;;;;;;5078224;28;20094;-77
2022/05/18 04:05:41;;;;;;;11.32;8.90;;;15.50;99.90;;;;;;5034076;28;20200;-77
2022/05/18 04:08:09;;;;;;;10.07;8.10;;;15.50;99.90;;;;;;5061620;28;20780;-78
2022/05/18 04:10:35;;;;;;;15.80;8.90;;;15.50;99.90;;;;;;5078798;28;20040;-78
2022/05/18 04:13:01;;;;;;;12.52;8.35;;;15.60;99.90;;;;;;5043926;28;20126;-78
2022/05/18 04:15:27;;;;;;;10.98;8.82;;;15.60;99.90;;;;;;5037288;28;20103;-78
2022/05/18 04:17:53;;;;;;;11.07;8.07;;;15.50;99.90;;;;;;5076643;28;20105;-78
2022/05/18 04:20:22;;;;;;;12.70;8.23;;;15.60;99.90;;;;;;5037066;28;20049;-77
2022/05/18 04:22:49;;;;;;;11.35;8.90;;;15.60;99.90;;;;;;5062426;28;20059;-78
2022/05/18 04:25:18;;;;;;;13.82;8.88;;;15.70;99.90;;;;;;5046466;28;20045;-78
2022/05/18 04:27:47;;;;;;;13.27;9.00;;;15.70;99.90;;;;;;5076666;28;20055;-78
2022/05/18 04:30:14;;;;;;;13.00;8.98;;;15.70;99.90;;;;;;5077347;28;20044;-78
2022/05/18 04:32:41;;;;;;;13.15;8.93;;;15.70;99.90;;;;;;5057775;28;20582;-78
2022/05/18 04:35:09;;;;;;;13.45;8.68;;;15.70;99.90;;;;;;5052475;28;20407;-78
2022/05/18 04:37:36;;;;;;;13.20;9.35;;;15.70;99.90;;;;;;5061685;28;20052;-78
2022/05/18 04:40:02;;;;;;;12.75;9.32;;;15.80;99.90;;;;;;5038355;28;20041;-79
2022/05/18 04:42:28;;;;;;;13.90;9.20;;;15.80;99.90;;;;;;5044420;28;20052;-78
2022/05/18 04:44:53;;;;;;;11.23;8.68;;;15.90;99.90;;;;;;5057002;28;20076;-77
2022/05/18 04:47:24;;;;;;;14.07;9.15;;;15.90;99.90;;;;;;5044866;28;20052;-78
2022/05/18 04:49:53;;;;;;;13.23;9.80;;;15.90;99.90;;;;;;5030913;28;20065;-79
2022/05/18 04:52:20;;;;;;;13.95;9.20;;;16.00;99.90;;;;;;5064469;28;20045;-77
2022/05/18 04:54:47;;;;;;;13.48;9.57;;;16.00;99.90;;;;;;5057694;28;20044;-77
2022/05/18 04:57:14;;;;;;;14.27;9.55;;;16.00;99.90;;;;;;5051283;28;20045;-76
2022/05/18 04:59:40;;;;;;;11.82;10.20;;;16.10;99.90;;;;;;5046919;28;20055;-77
2022/05/18 05:02:07;;;;;;;15.45;9.15;;;16.10;99.90;;;;;;5071528;28;20110;-76
2022/05/18 05:04:34;;;;;;;12.13;9.65;;;16.10;99.90;;;;;;5052780;28;20060;-77
2022/05/18 05:07:03;;;;;;;13.05;9.63;;;16.10;99.90;;;;;;5035989;28;20040;-76
2022/05/18 05:09:28;;;;;;;11.55;9.38;;;16.20;99.90;;;;;;5068222;28;20047;-76
2022/05/18 05:11:55;;;;;;;13.63;9.98;;;16.20;99.90;;;;;;5043962;28;20063;-77
2022/05/18 05:14:22;;;;;;;13.10;10.23;;;16.30;99.90;;;;;;5065405;28;20048;-77
2022/05/18 05:16:49;;;;;;;12.63;10.00;;;16.30;99.90;;;;;;5043909;28;20072;-76
2022/05/18 05:19:15;;;;;;;11.82;10.07;;;16.40;99.90;;;;;;5060050;28;20052;-76
2022/05/18 05:21:44;;;;;;;14.77;10.15;;;16.40;99.90;;;;;;5042670;28;20048;-77
2022/05/18 05:24:11;;;;;;;14.95;11.07;;;16.40;99.90;;;;;;5041579;28;20075;-76
2022/05/18 05:26:37;;;;;;;15.13;10.98;;;16.50;99.90;;;;;;5079041;28;20353;-76
2022/05/18 05:29:04;;;;;;;13.55;11.13;;;16.60;99.90;;;;;;5051987;28;20102;-76
2022/05/18 05:31:29;;;;;;;12.25;10.90;;;16.60;99.90;;;;;;5047368;28;20049;-76
2022/05/18 05:33:56;;;;;;;16.45;10.98;;;16.70;99.90;;;;;;5053046;28;20044;-76
2022/05/18 05:36:22;;;;;;;15.52;10.90;;;16.80;99.90;;;;;;5043050;28;20523;-77
2022/05/18 05:38:48;;;;;;;14.93;10.95;;;16.90;99.90;;;;;;5067929;28;20079;-76
2022/05/18 05:41:14;;;;;;;14.82;11.30;;;16.90;99.90;;;;;;5013972;28;20582;-76
2022/05/18 05:43:41;;;;;;;14.77;11.07;;;17.00;99.90;;;;;;5035015;28;20075;-76
2022/05/18 05:46:13;;;;;;;17.35;11.85;;;17.10;99.90;;;;;;5052499;28;20072;-76
2022/05/18 05:48:40;;;;;;;;;;;17.20;99.90;;;;;;5067829;28;20049;-77
2022/05/18 05:51:06;;;;;;;16.95;11.85;;;17.30;99.90;;;;;;5032145;28;19924;-77
2022/05/18 05:53:32;;;;;;;14.52;11.60;;;17.50;99.90;;;;;;5049175;28;20052;-77
2022/05/18 05:55:59;;;;;;;15.25;11.38;;;17.60;99.90;;;;;;5036604;28;20044;-77
2022/05/18 05:58:26;;;;;;;15.40;12.15;;;17.70;99.90;;;;;;5049458;28;20041;-77
2022/05/18 06:00:52;;;;;;;16.48;10.85;;;17.90;99.90;;;;;;5034816;28;20064;-77
2022/05/18 06:03:19;;;;;;;13.98;11.88;;;18.10;99.90;;;;;;5080489;28;20104;-77
2022/05/18 06:05:45;;;;;;;16.40;11.82;;;18.20;99.90;;;;;;5024587;28;20045;-76
2022/05/18 06:08:11;;;;;;;16.40;11.52;;;18.40;99.90;;;;;;5031043;28;20080;-77
2022/05/18 06:10:38;;;;;;;17.13;11.75;;;18.50;99.90;;;;;;5048539;28;20948;-77
2022/05/18 06:13:11;;;;;;;15.30;11.88;;;18.60;99.90;;;;;;5039655;28;20545;-77
2022/05/18 06:15:38;;;;;;;15.60;11.57;;;18.80;99.90;;;;;;5052035;28;20074;-78
2022/05/18 06:18:04;;;;;;;15.57;11.63;;;18.90;99.90;;;;;;5047903;28;20037;-79
2022/05/18 06:20:29;;;;;;;15.88;11.25;;;19.00;99.90;;;;;;5046702;28;20056;-76
2022/05/18 06:22:59;;;;;;;14.85;10.65;;;19.20;99.90;;;;;;5043263;28;20078;-76
2022/05/18 06:25:25;;;;;;;15.05;10.70;;;19.30;99.90;;;;;;5047299;28;20063;-77
2022/05/18 06:27:51;;;;;;;14.38;11.30;;;19.50;99.90;;;;;;5032115;28;20055;-76
2022/05/18 06:30:17;;;;;;;13.48;11.10;;;19.60;99.90;;;;;;5032760;28;20040;-76
2022/05/18 06:32:42;;;;;;;14.25;10.20;;;19.70;99.90;;;;;;5048569;28;20048;-76
2022/05/18 06:35:08;;;;;;;15.63;11.10;;;19.90;99.90;;;;;;5032604;28;20048;-76
2022/05/18 06:37:34;;;;;;;14.10;11.43;;;20.00;99.90;;;;;;5023607;28;20162;-76
2022/05/18 06:40:04;;;;;;;14.45;11.23;;;20.10;99.90;;;;;;5029370;28;20072;-77
2022/05/18 06:42:30;;;;;;;13.18;11.40;;;20.20;99.90;;;;;;5050264;28;20078;-77
2022/05/18 06:44:55;;;;;;;12.52;10.75;;;20.20;99.90;;;;;;5027819;28;20373;-76
2022/05/18 06:47:21;;;;;;;15.02;10.88;;;20.40;99.90;;;;;;5046792;28;20580;-77
2022/05/18 06:49:47;;;;;;;14.45;11.10;;;20.50;99.90;;;;;;5040612;28;20045;-77
2022/05/18 06:52:13;;;;;;;14.43;10.43;;;20.60;99.90;;;;;;5021458;28;20399;-78
2022/05/18 06:54:38;;;;;;;15.65;11.00;;;20.70;99.90;;;;;;5037217;28;20076;-77
2022/05/18 06:57:05;;;;;;;13.50;11.18;;;20.80;99.90;;;;;;5048409;28;20048;-77
2022/05/18 06:59:31;;;;;;;16.00;11.60;;;20.90;99.90;;;;;;5037629;28;20467;-77
2022/05/18 07:01:57;;;;;;;13.90;11.38;;;21.00;99.90;;;;;;5048647;28;20444;-77
2022/05/18 07:04:24;;;;;;;12.23;10.35;;;21.10;99.90;;;;;;5037350;28;20090;-77
2022/05/18 07:06:50;;;;;;;12.10;10.52;;;21.10;99.90;;;;;;5067287;28;20049;-78
2022/05/18 07:09:18;;;;;;;13.93;11.00;;;21.20;99.90;;;;;;5033142;28;20049;-77
2022/05/18 07:11:46;;;;;;;11.93;9.90;;;21.20;99.90;;;;;;5050058;28;20167;-77
2022/05/18 07:14:13;;;;;;;14.07;10.82;;;21.30;99.90;;;;;;5048451;28;20040;-78
2022/05/18 07:16:40;;;;;;;15.07;11.00;;;21.60;99.90;;;;;;5052031;28;20043;-77
2022/05/18 07:19:06;;;;;;;12.13;10.73;;;21.70;99.90;;;;;;5048853;28;20048;-77
2022/05/18 07:21:33;;;;;;;14.88;10.82;;;21.80;99.90;;;;;;5065579;28;20049;-77
2022/05/18 07:23:58;;;;;;;17.00;10.68;;;22.00;99.90;;;;;;5053327;28;20048;-77
2022/05/18 07:26:26;;;;;;;12.77;10.32;;;22.10;99.90;;;;;;5039755;28;20060;-77
2022/05/18 07:28:53;;;;;;;14.73;10.88;;;22.20;99.90;;;;;;5060829;28;20068;-77
2022/05/18 07:31:22;;;;;;;13.10;10.40;;;22.30;99.90;;;;;;5060726;28;20479;-77
2022/05/18 07:33:48;;;;;;;14.73;11.07;;;22.40;99.90;;;;;;5051057;28;20097;-78
2022/05/18 07:36:15;;;;;;;16.17;11.05;;;22.50;99.90;;;;;;5027346;28;20530;-77
2022/05/18 07:38:41;;;;;;;13.10;10.13;;;22.60;99.90;;;;;;5009475;28;20112;-77
2022/05/18 07:41:10;;;;;;;11.23;9.88;;;22.80;99.90;;;;;;5065511;28;20562;-78
2022/05/18 07:43:36;;;;;;;11.80;9.48;;;22.90;99.90;;;;;;5045926;28;20052;-77
2022/05/18 07:46:02;;;;;;;11.95;9.75;;;23.00;99.90;;;;;;5025552;28;20504;-77
2022/05/18 07:48:28;;;;;;;14.52;9.70;;;23.10;99.90;;;;;;5062731;28;20053;-77
2022/05/18 07:50:54;;;;;;;13.73;9.55;;;23.10;99.90;;;;;;5061305;28;20418;-77
2022/05/18 07:53:21;;;;;;;10.55;9.45;;;23.10;99.90;;;;;;5040445;28;20128;-77
2022/05/18 07:55:47;;;;;;;15.43;9.60;;;23.30;99.90;;;;;;5048075;28;20763;-77
2022/05/18 07:58:15;;;;;;;13.43;9.70;;;23.40;99.90;;;;;;5067078;28;20554;-77
2022/05/18 08:00:41;;;;;;;16.50;9.02;;;23.50;99.90;;;;;;5079001;28;20053;-78
2022/05/18 08:03:10;;;;;;;13.00;9.98;;;23.60;99.90;;;;;;5028714;28;20048;-78
2022/05/18 08:05:41;;;;;;;10.00;8.95;;;23.70;99.90;;;;;;5072244;28;20033;-77
2022/05/18 08:08:14;;;;;;;11.75;8.55;;;23.80;99.90;;;;;;5057095;28;20048;-78
2022/05/18 08:16:10;;;;;;;8.43;7.55;;;24.20;99.90;;;;;;5081001;28;20048;-78
2022/05/18 08:18:37;;;;;;;9.60;7.68;;;24.40;99.90;;;;;;5072640;28;20523;-77
2022/05/18 08:21:03;;;;;;;10.25;7.70;;;24.50;99.90;;;;;;5039627;28;20079;-77
2022/05/18 08:23:28;;;;;;;7.88;6.72;;;24.70;99.90;;;;;;5044820;28;20095;-78
2022/05/18 08:25:56;;;;;;;9.90;7.43;;;24.80;99.90;;;;;;5063145;28;20049;-78
2022/05/18 08:28:22;;;;;;;10.20;7.40;;;25.00;99.90;;;;;;5054010;28;20083;-78
2022/05/18 08:30:48;;;;;;;10.27;6.85;;;25.00;99.90;;;;;;5082485;28;20070;-77
2022/05/18 08:33:14;;;;;;;9.23;6.75;;;25.10;99.90;;;;;;5055478;28;20056;-77
2022/05/18 08:35:43;;;;;;;8.07;6.00;;;25.20;99.90;;;;;;5057869;28;20100;-78
2022/05/18 08:38:10;;;;;;;11.02;6.65;;;25.30;99.90;;;;;;5076899;28;20075;-78
2022/05/18 08:40:42;;;;;;;8.57;7.10;;;25.40;99.90;;;;;;5065387;28;20045;-77
2022/05/18 08:43:12;;;;;;;7.97;6.63;;;25.50;99.90;;;;;;5057325;28;20131;-78
2022/05/18 08:45:43;;;;;;;7.40;6.32;;;25.50;99.90;;;;;;5059049;28;20044;-77
2022/05/18 08:48:44;;;;;;;11.52;6.70;;;25.50;99.90;;;;;;5083356;28;20668;-78
2022/05/18 08:51:32;;;;;;;10.53;6.53;;;25.60;99.90;;;;;;5031923;28;20383;-78
2022/05/18 08:54:20;;;;;;;9.57;6.70;;;25.70;99.90;;;;;;5068206;28;20049;-78
2022/05/18 08:56:45;;;;;;;7.45;6.03;;;25.70;99.90;;;;;;5050911;28;20122;-77
2022/05/18 08:59:22;;;;;;;10.30;6.80;;;25.80;99.90;;;;;;5047503;28;20457;-78
2022/05/18 09:01:51;;;;;;;10.40;5.95;;;26.00;99.90;;;;;;5060417;28;20044;-77
2022/05/18 09:04:41;;;;;;;6.68;5.50;;;26.10;99.90;;;;;;5056795;28;20048;-77
2022/05/18 09:07:13;;;;;;;9.35;6.60;;;26.40;99.90;;;;;;5050009;28;20084;-78
2022/05/18 09:12:27;;;;;;;10.10;6.90;;;26.60;99.90;;;;;;5062540;28;20052;-78
2022/05/18 09:14:53;;;;;;;10.15;6.70;;;26.70;99.90;;;;;;5063165;28;20532;-81
2022/05/18 09:17:51;;;;;;;8.88;6.65;;;26.80;99.90;;;;;;5051278;28;20059;-83
2022/05/18 09:20:38;;;;;;;8.32;6.40;;;26.80;99.90;;;;;;5048036;28;20086;-82
2022/05/18 09:23:16;;;;;;;10.68;6.78;;;26.90;99.90;;;;;;5046491;28;20432;-83
2022/05/18 09:25:50;;;;;;;7.97;5.82;;;26.90;99.90;;;;;;5050894;28;20078;-83
2022/05/18 09:28:40;;;;;;;7.18;6.57;;;27.00;99.90;;;;;;5060349;28;20064;-84
2022/05/18 09:31:05;;;;;;;9.18;7.18;;;27.00;99.90;;;;;;5067201;28;20575;-83
2022/05/18 09:33:31;;;;;;;12.90;6.80;;;27.10;99.90;;;;;;5034381;28;20043;-83
2022/05/18 09:36:02;;;;;;;9.10;5.78;;;27.30;99.90;;;;;;5064827;28;20132;-84
2022/05/18 09:38:44;;;;;;;8.10;6.32;;;27.30;99.90;;;;;;5051731;28;20507;-83
2022/05/18 09:41:14;;;;;;;;;;;27.30;99.90;;;;;;5049730;28;20668;-83
2022/05/18 09:44:07;;;;;;;9.00;7.40;;;27.20;99.90;;;;;;5045393;28;19924;-82
2022/05/18 09:46:34;;;;;;;8.52;6.90;;;27.30;99.90;;;;;;5068705;28;20463;-84
2022/05/18 09:49:12;;;;;;;8.23;6.07;;;27.40;99.90;;;;;;5028262;28;20044;-84
2022/05/18 09:51:38;;;;;;;8.30;6.55;;;27.60;99.90;;;;;;5036456;28;20876;-85
2022/05/18 09:54:05;;;;;;;8.93;6.47;;;27.70;99.90;;;;;;5052543;28;20052;-83
2022/05/18 09:56:37;;;;;;;6.93;5.38;;;27.80;99.90;;;;;;5050870;28;20036;-83
2022/05/18 09:59:09;;;;;;;10.65;5.63;;;27.80;98.10;;;;;;5051354;28;20052;-84
2022/05/18 10:07:28;;;;;;;7.07;5.25;;;28.00;99.90;;;;;;5076266;28;20056;-83
2022/05/18 10:10:00;;;;;;;8.23;6.28;;;28.10;99.90;;;;;;5050904;28;20086;-83
2022/05/18 10:12:37;;;;;;;8.85;6.57;;;28.10;99.90;;;;;;5051449;28;20033;-83
2022/05/18 10:15:31;;;;;;;7.53;5.88;;;28.20;93.50;;;;;;5068438;28;20143;-84
2022/05/18 10:18:09;;;;;;;7.50;6.55;;;28.20;99.80;;;;;;5049100;28;20068;-83
2022/05/18 10:20:37;;;;;;;8.52;7.20;;;28.20;99.40;;;;;;5063137;28;20047;-82
2022/05/18 10:23:04;;;;;;;10.80;7.85;;;28.20;99.30;;;;;;5044471;28;20047;-83
2022/05/18 10:25:40;;;;;;;10.13;7.32;;;28.20;97.30;;;;;;5050636;28;20044;-83
2022/05/18 10:28:22;;;;;;;11.13;8.18;;;28.20;98.20;;;;;;5049023;28;20032;-82
2022/05/18 10:30:54;;;;;;;7.15;6.07;;;28.30;91.40;;;;;;5046969;28;20097;-83
2022/05/18 10:33:22;;;;;;;8.07;6.05;;;28.40;95.40;;;;;;5068128;28;20056;-83
2022/05/18 10:35:53;;;;;;;8.75;5.50;;;28.40;93.20;;;;;;5039660;28;20090;-83
2022/05/18 10:38:29;;;;;;;7.72;5.75;;;28.50;94.70;;;;;;5063448;28;20453;-83
2022/05/18 10:41:04;;;;;;;9.73;6.43;;;28.60;90.60;;;;;;5061883;28;20056;-84
2022/05/18 10:43:36;;;;;;;7.13;5.63;;;28.60;88.10;;;;;;5049957;28;20056;-84
2022/05/18 10:46:15;;;;;;;10.43;6.28;;;28.60;89.30;;;;;;5042702;28;20045;-84
2022/05/18 10:48:52;;;;;;;8.30;6.57;;;28.70;83.20;;;;;;5067319;28;20044;-83
2022/05/18 10:51:28;;;;;;;9.02;6.35;;;28.70;89.50;;;;;;5048635;28;20355;-84
2022/05/18 10:54:38;;;;;;;7.43;6.13;;;28.70;80.60;;;;;;5063936;28;20091;-84
2022/05/18 10:57:10;;;;;;;7.25;5.63;;;28.80;90.50;;;;;;5039329;28;20075;-84
2022/05/18 10:59:51;;;;;;;7.20;5.78;;;29.00;92.60;;;;;;5060268;28;20549;-84
2022/05/18 11:02:41;;;;;;;8.65;5.32;;;29.00;90.60;;;;;;5063026;28;20041;-84
2022/05/18 11:05:17;;;;;;;7.45;6.28;;;28.90;86.50;;;;;;5049065;28;20041;-83
2022/05/18 11:07:43;;;;;;;11.10;7.18;;;28.90;87.70;;;;;;5067764;28;20045;-84
2022/05/18 11:10:10;;;;;;;10.85;7.75;;;28.90;86.50;;;;;;5026593;28;20071;-83
2022/05/18 11:13:01;;;;;;;11.07;8.30;;;28.90;90.70;;;;;;5051300;28;20043;-84
2022/05/18 11:15:50;;;;;;;11.50;8.98;;;28.70;88.90;;;;;;5041494;28;20438;-83
2022/05/18 11:18:42;;;;;;;13.65;8.45;;;28.70;85.80;;;;;;5045965;28;20542;-82
2022/05/18 11:21:38;;;;;;;12.32;8.25;;;28.70;88.70;;;;;;5065315;28;20403;-85
2022/05/18 11:24:30;;;;;;;8.07;7.30;;;28.80;94.10;;;;;;5058074;28;20068;-84
2022/05/18 11:27:25;;;;;;;11.00;9.07;;;28.70;96.50;;;;;;5044472;28;20037;-83
2022/05/18 11:30:20;;;;;;;12.27;9.05;;;28.90;91.40;;;;;;5066749;28;20110;-84
2022/05/18 11:32:54;;;;;;;9.73;7.65;;;29.00;91.50;;;;;;5045225;28;20056;-83
2022/05/18 11:35:43;;;;;;;11.35;7.38;;;29.00;82.70;;;;;;5050723;28;20037;-83
2022/05/18 11:38:20;;;;;;;10.50;8.70;;;29.10;91.40;;;;;;5037683;28;20047;-83
2022/05/18 11:40:52;;;;;;;12.50;8.48;;;29.20;90.40;;;;;;5056479;28;20042;-83
2022/05/18 11:43:53;;;;;;;10.93;8.02;;;29.30;88.30;;;;;;5055054;28;20528;-84
2022/05/18 11:46:49;;;;;;;15.38;8.93;;;29.30;81.90;;;;;;5043559;28;20056;-83
2022/05/18 11:49:34;;;;;;;10.15;8.45;;;29.30;84.80;;;;;;5049565;28;20432;-83
2022/05/18 11:52:29;;;;;;;11.73;7.85;;;29.40;80.60;;;;;;5042161;28;20049;-83
2022/05/18 11:55:09;;;;;;;10.07;7.47;;;29.30;84.50;;;;;;5049549;28;20049;-82
2022/05/18 11:57:45;;;;;;;11.98;8.40;;;29.40;85.10;;;;;;5039350;28;20033;-83
2022/05/18 12:03:33;;;;;;;8.90;7.50;;;29.80;81.50;;;;;;5066457;28;20057;-82
2022/05/18 12:06:23;;;;;;;9.90;7.93;;;29.80;70.10;;;;;;5037128;28;20053;-83
2022/05/18 12:08:57;;;;;;;8.70;6.80;;;29.90;73.00;;;;;;5052324;28;20080;-82
2022/05/18 12:11:41;;;;;;;6.32;5.15;;;29.80;66.70;;;;;;5036244;28;20110;-82
2022/05/18 12:14:39;;;;;;;6.03;5.13;;;29.50;67.80;;;;;;5045490;28;20037;-83
2022/05/18 12:17:15;;;;;;;8.23;6.63;;;29.40;64.10;;;;;;5050107;28;20132;-78
2022/05/18 12:19:41;;;;;;;8.45;4.53;;;29.20;72.90;;;;;;5051419;28;20064;-79
2022/05/18 12:22:10;;;;;;;6.13;4.50;;;29.30;71.40;;;;;;5040614;28;20033;-79
2022/05/18 12:24:39;;;;;;;6.03;3.95;;;29.60;70.50;;;;;;5044825;28;20044;-80
2022/05/18 12:27:08;;;;;;;6.53;4.43;;;29.60;68.20;;;;;;5046452;28;20041;-80
2022/05/18 12:29:34;;;;;;;7.18;4.70;;;29.50;65.10;;;;;;5056378;28;20047;-79
2022/05/18 12:32:00;;;;;;;8.98;5.28;;;29.10;66.60;;;;;;5039422;28;20072;-80
2022/05/18 12:34:38;;;;;;;8.20;5.30;;;28.80;68.30;;;;;;5053915;28;20078;-81
2022/05/18 12:37:13;;;;;;;9.25;5.60;;;28.50;70.30;;;;;;5045756;28;20056;-79
2022/05/18 12:39:49;;;;;;;10.32;5.68;;;28.20;72.70;;;;;;5075207;28;20140;-80
2022/05/18 12:42:24;;;;;;;11.35;6.00;;;28.10;84.50;;;;;;5055500;28;20048;-80
2022/05/18 12:44:56;;;;;;;8.75;5.82;;;28.00;85.70;;;;;;5072925;28;20099;-81
2022/05/18 12:47:29;;;;;;;6.78;5.18;;;27.90;90.70;;;;;;5049857;28;20328;-80
2022/05/18 12:50:08;;;;;;;7.97;5.53;;;27.70;94.30;;;;;;5074247;28;20060;-80
2022/05/18 12:52:44;;;;;;;6.60;5.03;;;27.60;92.80;;;;;;5063292;28;20081;-79
2022/05/18 12:55:31;;;;;;;6.20;4.38;;;27.40;94.10;;;;;;5059414;28;20363;-81
2022/05/18 12:58:26;;;;;;;7.90;4.75;;;27.30;97.00;;;;;;5083136;28;20057;-80
2022/05/18 13:00:56;;;;;;;6.38;4.72;;;27.10;94.90;;;;;;5049538;28;20144;-79
2022/05/18 13:03:40;;;;;;;9.02;4.63;;;27.00;99.90;;;;;;5075840;28;20075;-80
2022/05/18 13:06:22;;;;;;;6.47;4.00;;;27.00;99.60;;;;;;5044001;28;20086;-79
2022/05/18 13:09:01;;;;;;;4.93;3.83;;;26.90;99.90;;;;;;5056879;28;20086;-81
2022/05/18 13:11:33;;;;;;;4.03;3.45;;;26.90;99.90;;;;;;5069595;28;20081;-80
2022/05/18 13:14:24;;;;;;;4.45;3.20;;;26.80;99.90;;;;;;5081214;28;20053;-80
2022/05/18 13:16:49;;;;;;;5.47;3.30;;;26.90;99.90;;;;;;5043038;28;20071;-80